createdAt,value
2018-08-27T00:00:40.778Z,4.37
2018-08-27T00:03:09.945Z,2.33
2018-08-27T00:05:39.453Z,1.50
2018-08-27T00:08:08.731Z,2.43
2018-08-27T00:10:38.162Z,2.30
2018-08-27T00:13:07.215Z,1.77
2018-08-27T00:15:36.357Z,3.97
2018-08-27T00:18:05.664Z,2.53
2018-08-27T00:20:35.038Z,1.90
2018-08-27T00:23:04.448Z,1.40
2018-08-27T00:25:33.809Z,1.67
2018-08-27T00:28:02.965Z,3.17
2018-08-27T00:30:32.149Z,1.97
2018-08-27T00:33:01.535Z,4.03
2018-08-27T00:35:30.908Z,1.40
2018-08-27T00:38:00.073Z,2.47
2018-08-27T00:40:29.524Z,1.63
2018-08-27T00:42:58.745Z,6.57
2018-08-27T00:45:28.795Z,1.60
2018-08-27T00:47:58.018Z,1.60
2018-08-27T00:50:27.307Z,2.43
2018-08-27T00:52:56.520Z,1.67
2018-08-27T00:55:25.728Z,1.87
2018-08-27T00:57:54.924Z,1.40
2018-08-27T01:00:24.179Z,1.53
2018-08-27T01:02:53.559Z,2.27
2018-08-27T01:05:22.998Z,2.40
2018-08-27T01:07:52.246Z,1.93
2018-08-27T01:10:21.478Z,3.27
2018-08-27T01:12:50.795Z,1.40
2018-08-27T01:15:21.221Z,1.57
2018-08-27T01:17:50.368Z,2.00
2018-08-27T01:20:19.430Z,2.03
2018-08-27T01:22:48.667Z,3.97
2018-08-27T01:25:17.896Z,2.17
2018-08-27T01:27:47.264Z,5.93
2018-08-27T01:30:16.681Z,2.40
2018-08-27T01:32:45.712Z,3.20
2018-08-27T01:35:15.189Z,1.70
2018-08-27T01:37:44.576Z,2.63
2018-08-27T01:40:13.726Z,3.63
2018-08-27T01:42:43.012Z,3.67
2018-08-27T01:45:12.495Z,1.80
2018-08-27T01:47:41.532Z,1.97
2018-08-27T01:50:10.672Z,3.43
2018-08-27T01:52:39.872Z,3.93
2018-08-27T01:55:09.277Z,2.73
2018-08-27T01:57:38.732Z,3.70
2018-08-27T02:00:10.481Z,6.43
2018-08-27T02:02:40.387Z,1.90
2018-08-27T02:05:09.548Z,1.70
2018-08-27T02:07:38.900Z,4.00
2018-08-27T02:10:08.132Z,1.70
2018-08-27T02:12:37.340Z,1.70
2018-08-27T02:15:06.609Z,2.93
2018-08-27T02:17:35.918Z,2.03
2018-08-27T02:20:05.153Z,1.63
2018-08-27T02:22:34.128Z,1.57
2018-08-27T02:25:03.118Z,4.60
2018-08-27T02:27:32.240Z,1.87
2018-08-27T02:30:01.485Z,2.50
2018-08-27T02:32:30.428Z,2.53
2018-08-27T02:34:59.647Z,1.87
2018-08-27T02:37:28.594Z,2.53
2018-08-27T02:39:57.921Z,1.87
2018-08-27T02:42:27.089Z,2.53
2018-08-27T02:44:56.250Z,3.30
2018-08-27T02:47:25.795Z,1.93
2018-08-27T02:49:54.864Z,1.50
2018-08-27T02:52:24.218Z,2.63
2018-08-27T02:54:54.390Z,2.90
2018-08-27T02:57:23.426Z,3.87
2018-08-27T02:59:52.753Z,5.83
2018-08-27T03:02:22.124Z,1.57
2018-08-27T03:04:51.181Z,4.10
2018-08-27T03:07:20.608Z,1.63
2018-08-27T03:09:49.662Z,1.93
2018-08-27T03:12:18.737Z,2.70
2018-08-27T03:14:48.149Z,3.37
2018-08-27T03:17:17.167Z,2.07
2018-08-27T03:19:46.540Z,2.50
2018-08-27T03:22:15.733Z,2.90
2018-08-27T03:24:45.194Z,3.43
2018-08-27T03:27:14.529Z,2.40
2018-08-27T03:29:44.079Z,3.00
2018-08-27T03:32:13.312Z,2.30
2018-08-27T03:34:42.535Z,2.10
2018-08-27T03:37:11.717Z,1.93
2018-08-27T03:39:41.083Z,3.67
2018-08-27T03:42:10.495Z,2.47
2018-08-27T03:44:39.848Z,2.60
2018-08-27T03:47:09.142Z,3.77
2018-08-27T03:49:38.312Z,1.80
2018-08-27T03:52:07.517Z,3.50
2018-08-27T03:54:36.782Z,4.27
2018-08-27T03:57:06.265Z,2.20
2018-08-27T03:59:35.485Z,2.07
2018-08-27T04:02:05.278Z,2.70
2018-08-27T04:04:34.335Z,3.63
2018-08-27T04:07:03.666Z,3.10
2018-08-27T04:09:32.861Z,2.23
2018-08-27T04:12:02.456Z,3.53
2018-08-27T04:14:31.624Z,2.40
2018-08-27T04:17:00.969Z,2.83
2018-08-27T04:19:30.168Z,2.60
2018-08-27T04:21:59.569Z,2.80
2018-08-27T04:24:28.978Z,1.83
2018-08-27T04:26:58.370Z,1.60
2018-08-27T04:29:34.361Z,3.70
2018-08-27T04:32:03.714Z,1.47
2018-08-27T04:34:32.952Z,2.43
2018-08-27T04:37:02.276Z,2.40
2018-08-27T04:39:31.854Z,2.80
2018-08-27T04:42:01.071Z,2.50
2018-08-27T04:44:30.424Z,2.37
2018-08-27T04:46:59.794Z,3.90
2018-08-27T04:49:29.074Z,3.20
2018-08-27T04:51:58.352Z,1.97
2018-08-27T04:54:27.745Z,2.23
2018-08-27T04:56:57.072Z,3.03
2018-08-27T04:59:28.913Z,3.00
2018-08-27T05:01:57.890Z,4.37
2018-08-27T05:04:27.115Z,2.20
2018-08-27T05:06:56.064Z,2.27
2018-08-27T05:09:25.011Z,3.07
2018-08-27T05:11:54.142Z,2.10
2018-08-27T05:14:23.248Z,2.53
2018-08-27T05:16:52.389Z,2.50
2018-08-27T05:19:21.454Z,3.93
2018-08-27T05:21:50.705Z,1.73
2018-08-27T05:24:20.200Z,2.60
2018-08-27T05:26:49.561Z,3.17
2018-08-27T05:29:18.578Z,2.17
2018-08-27T05:31:47.789Z,3.57
2018-08-27T05:34:17.013Z,2.47
2018-08-27T05:36:46.409Z,1.93
2018-08-27T05:39:15.749Z,2.07
2018-08-27T05:41:44.885Z,2.53
2018-08-27T05:44:14.335Z,2.50
2018-08-27T05:46:43.597Z,2.27
2018-08-27T05:49:13.034Z,1.93
2018-08-27T05:51:42.332Z,2.60
2018-08-27T05:54:11.547Z,2.37
2018-08-27T05:56:40.890Z,2.77
2018-08-27T05:59:10.396Z,1.50
2018-08-27T06:01:39.844Z,3.13
2018-08-27T06:04:09.668Z,1.67
2018-08-27T06:06:45.740Z,2.90
2018-08-27T06:09:15.470Z,1.40
2018-08-27T06:11:44.924Z,2.57
2018-08-27T06:14:14.237Z,2.63
2018-08-27T06:16:43.665Z,3.90
2018-08-27T06:19:13.221Z,3.40
2018-08-27T06:21:42.262Z,3.20
2018-08-27T06:24:11.484Z,2.47
2018-08-27T06:26:40.932Z,1.67
2018-08-27T06:29:10.380Z,1.40
2018-08-27T06:31:39.488Z,2.50
2018-08-27T06:34:09.443Z,1.63
2018-08-27T06:36:38.728Z,1.83
2018-08-27T06:39:09.577Z,1.30
2018-08-27T06:41:38.824Z,2.07
2018-08-27T06:44:08.349Z,2.80
2018-08-27T06:46:37.232Z,1.50
2018-08-27T06:49:06.261Z,1.97
2018-08-27T06:51:35.366Z,3.50
2018-08-27T06:54:04.703Z,1.53
2018-08-27T06:56:33.741Z,1.10
2018-08-27T06:59:03.103Z,2.80
2018-08-27T07:01:32.221Z,1.40
2018-08-27T07:04:02.066Z,2.33
2018-08-27T07:06:31.111Z,1.70
2018-08-27T07:09:00.380Z,1.90
2018-08-27T07:11:29.514Z,3.60
2018-08-27T07:13:58.742Z,1.40
2018-08-27T07:16:27.829Z,1.30
2018-08-27T07:18:56.812Z,1.70
2018-08-27T07:21:26.261Z,1.50
2018-08-27T07:23:55.589Z,1.30
2018-08-27T07:26:24.909Z,1.57
2018-08-27T07:28:54.045Z,1.50
2018-08-27T07:31:23.405Z,3.53
2018-08-27T07:33:52.540Z,1.83
2018-08-27T07:36:22.258Z,2.57
2018-08-27T07:38:51.208Z,1.40
2018-08-27T07:41:20.405Z,1.30
2018-08-27T07:43:49.790Z,2.17
2018-08-27T07:46:19.052Z,1.40
2018-08-27T07:48:48.232Z,1.47
2018-08-27T07:51:18.047Z,1.73
2018-08-27T07:53:47.100Z,1.20
2018-08-27T07:56:16.664Z,1.57
2018-08-27T07:58:45.946Z,1.40
2018-08-27T08:01:16.844Z,1.80
2018-08-27T08:03:46.773Z,1.63
2018-08-27T08:06:17.198Z,4.10
2018-08-27T08:08:47.188Z,2.40
2018-08-27T08:11:16.740Z,2.30
2018-08-27T08:13:46.044Z,1.83
2018-08-27T08:16:15.175Z,2.90
2018-08-27T08:18:44.932Z,2.90
2018-08-27T08:21:14.462Z,2.57
2018-08-27T08:23:45.351Z,1.70
2018-08-27T08:26:14.692Z,4.20
2018-08-27T08:28:43.837Z,3.57
2018-08-27T08:31:13.049Z,8.33
2018-08-27T08:33:43.177Z,2.40
2018-08-27T08:36:12.202Z,2.70
2018-08-27T08:38:41.141Z,3.07
2018-08-27T08:41:10.371Z,2.60
2018-08-27T08:43:39.741Z,2.90
2018-08-27T08:46:09.020Z,5.43
2018-08-27T08:48:38.435Z,5.13
2018-08-27T08:51:07.799Z,2.40
2018-08-27T08:53:37.240Z,2.97
2018-08-27T08:56:07.498Z,3.83
2018-08-27T08:58:36.534Z,6.20
2018-08-27T09:01:05.608Z,3.60
2018-08-27T09:03:34.763Z,3.97
2018-08-27T09:06:04.106Z,4.57
2018-08-27T09:08:33.493Z,6.10
2018-08-27T09:11:02.724Z,4.57
2018-08-27T09:13:32.788Z,4.40
2018-08-27T09:16:01.989Z,5.10
2018-08-27T09:18:31.225Z,4.27
2018-08-27T09:21:00.315Z,5.47
2018-08-27T09:23:29.756Z,5.30
2018-08-27T09:25:59.065Z,5.97
2018-08-27T09:28:28.352Z,5.40
2018-08-27T09:33:26.754Z,5.83
2018-08-27T09:35:56.471Z,5.05
2018-08-27T09:38:25.484Z,5.90
2018-08-27T09:40:54.848Z,5.50
2018-08-27T09:43:24.164Z,6.07
2018-08-27T09:45:53.861Z,5.00
2018-08-27T09:48:22.952Z,4.43
2018-08-27T09:50:52.283Z,4.50
2018-08-27T09:53:21.336Z,4.13
2018-08-27T09:55:50.587Z,5.50
2018-08-27T09:58:20.497Z,4.57
2018-08-27T10:00:55.162Z,3.97
2018-08-27T10:03:25.507Z,3.10
2018-08-27T10:05:56.702Z,5.27
2018-08-27T10:08:25.654Z,3.27
2018-08-27T10:10:54.784Z,4.27
2018-08-27T10:13:23.947Z,3.50
2018-08-27T10:15:52.934Z,4.23
2018-08-27T10:18:22.177Z,4.10
2018-08-27T10:20:51.552Z,4.53
2018-08-27T10:23:22.680Z,3.30
2018-08-27T10:25:52.001Z,6.30
2018-08-27T10:28:21.853Z,5.00
2018-08-27T10:30:51.255Z,3.30
2018-08-27T10:33:20.337Z,8.77
2018-08-27T10:35:49.312Z,5.33
2018-08-27T10:38:18.280Z,4.53
2018-08-27T10:40:47.680Z,4.30
2018-08-27T10:43:17.050Z,4.93
2018-08-27T10:45:45.953Z,5.53
2018-08-27T10:48:15.163Z,4.60
2018-08-27T10:50:44.275Z,4.60
2018-08-27T10:53:13.476Z,6.33
2018-08-27T10:55:42.487Z,5.53
2018-08-27T10:58:11.688Z,7.37
2018-08-27T11:00:40.626Z,7.23
2018-08-27T11:03:16.322Z,5.07
2018-08-27T11:05:45.899Z,6.60
2018-08-27T11:08:15.357Z,5.40
2018-08-27T11:13:12.945Z,7.90
2018-08-27T11:15:42.096Z,6.20
2018-08-27T11:18:11.775Z,4.90
2018-08-27T11:20:41.638Z,5.37
2018-08-27T11:23:10.440Z,5.65
2018-08-27T11:25:39.521Z,3.70
2018-08-27T11:28:08.642Z,5.23
2018-08-27T11:30:37.864Z,5.70
2018-08-27T11:33:06.966Z,8.13
2018-08-27T11:35:36.332Z,8.63
2018-08-27T11:38:05.743Z,6.03
2018-08-27T11:40:34.938Z,4.37
2018-08-27T11:43:04.749Z,5.00
2018-08-27T11:45:34.177Z,6.43
2018-08-27T11:48:03.256Z,5.87
2018-08-27T11:50:32.565Z,7.40
2018-08-27T11:53:01.763Z,11.73
2018-08-27T11:55:31.581Z,5.77
2018-08-27T11:58:00.598Z,4.97
2018-08-27T12:00:35.120Z,8.73
2018-08-27T12:03:05.526Z,11.20
2018-08-27T12:05:35.391Z,5.33
2018-08-27T12:08:05.240Z,5.00
2018-08-27T12:10:34.259Z,6.50
2018-08-27T12:13:03.537Z,6.97
2018-08-27T12:15:32.838Z,7.13
2018-08-27T12:18:02.013Z,8.97
2018-08-27T12:20:31.062Z,6.63
2018-08-27T12:23:00.366Z,5.73
2018-08-27T12:25:29.708Z,8.33
2018-08-27T12:28:00.422Z,5.70
2018-08-27T12:30:29.397Z,10.03
2018-08-27T12:32:58.396Z,9.90
2018-08-27T12:35:27.875Z,10.13
2018-08-27T12:37:57.020Z,5.00
2018-08-27T12:40:26.086Z,9.73
2018-08-27T12:42:55.329Z,6.53
2018-08-27T12:45:24.373Z,5.23
2018-08-27T12:47:53.856Z,5.20
2018-08-27T12:50:23.737Z,6.53
2018-08-27T12:52:52.719Z,5.80
2018-08-27T12:55:23.017Z,7.80
2018-08-27T12:57:52.061Z,10.45
2018-08-27T13:00:21.274Z,6.85
2018-08-27T13:02:50.311Z,6.57
2018-08-27T13:05:19.285Z,4.55
2018-08-27T13:07:49.549Z,5.90
2018-08-27T13:10:18.632Z,12.30
2018-08-27T13:12:47.705Z,9.50
2018-08-27T13:15:16.653Z,6.63
2018-08-27T13:17:45.870Z,8.70
2018-08-27T13:20:15.218Z,6.67
2018-08-27T13:22:44.564Z,6.93
2018-08-27T13:25:13.686Z,3.60
2018-08-27T13:27:42.740Z,4.70
2018-08-27T13:30:11.999Z,10.80
2018-08-27T13:32:41.325Z,5.60
2018-08-27T13:35:10.582Z,6.80
2018-08-27T13:37:39.860Z,8.57
2018-08-27T13:40:09.163Z,6.33
2018-08-27T13:42:38.305Z,10.33
2018-08-27T13:45:07.920Z,8.83
2018-08-27T13:47:37.169Z,7.80
2018-08-27T13:50:06.921Z,8.43
2018-08-27T13:52:36.232Z,10.33
2018-08-27T13:55:05.576Z,7.03
2018-08-27T13:57:35.252Z,10.43
2018-08-27T14:00:05.580Z,6.67
2018-08-27T14:02:34.826Z,13.23
2018-08-27T14:05:03.909Z,9.13
2018-08-27T14:07:33.009Z,8.97
2018-08-27T14:10:02.227Z,15.00
2018-08-27T14:12:31.681Z,9.75
2018-08-27T14:15:01.980Z,6.50
2018-08-27T14:17:30.854Z,5.40
2018-08-27T14:20:00.242Z,7.53
2018-08-27T14:22:29.219Z,6.43
2018-08-27T14:24:59.037Z,7.93
2018-08-27T14:27:28.133Z,9.27
2018-08-27T14:29:57.567Z,8.17
2018-08-27T14:32:26.634Z,6.97
2018-08-27T14:34:56.069Z,13.70
2018-08-27T14:37:25.450Z,9.40
2018-08-27T14:39:54.999Z,10.83
2018-08-27T14:42:24.406Z,6.70
2018-08-27T14:44:53.879Z,8.43
2018-08-27T14:47:23.143Z,7.83
2018-08-27T14:49:52.617Z,10.45
2018-08-27T14:52:22.031Z,9.70
2018-08-27T14:54:51.377Z,8.20
2018-08-27T14:57:20.766Z,6.30
2018-08-27T14:59:50.679Z,9.80
2018-08-27T15:02:19.825Z,13.47
2018-08-27T15:04:49.878Z,8.73
2018-08-27T15:07:19.005Z,8.00
2018-08-27T15:09:48.184Z,14.90
2018-08-27T15:12:17.637Z,7.20
2018-08-27T15:14:47.346Z,9.80
2018-08-27T15:17:16.651Z,8.20
2018-08-27T15:19:45.817Z,11.97
2018-08-27T15:22:15.098Z,8.60
2018-08-27T15:24:44.628Z,7.50
2018-08-27T15:27:13.944Z,7.57
2018-08-27T15:29:43.124Z,9.70
2018-08-27T15:32:12.543Z,10.93
2018-08-27T15:34:41.696Z,8.13
2018-08-27T15:37:11.190Z,7.00
2018-08-27T15:39:40.456Z,9.57
2018-08-27T15:42:09.823Z,9.70
2018-08-27T15:44:39.047Z,8.90
2018-08-27T15:47:08.192Z,7.67
2018-08-27T15:49:37.397Z,11.30
2018-08-27T15:52:07.000Z,7.43
2018-08-27T15:54:36.246Z,11.57
2018-08-27T15:57:05.485Z,9.00
2018-08-27T15:59:35.312Z,10.73
2018-08-27T16:02:04.708Z,9.33
2018-08-27T16:04:33.998Z,10.37
2018-08-27T16:07:03.089Z,8.03
2018-08-27T16:09:32.258Z,10.00
2018-08-27T16:12:01.408Z,12.60
2018-08-27T16:14:30.450Z,9.63
2018-08-27T16:16:59.983Z,7.27
2018-08-27T16:19:29.135Z,6.90
2018-08-27T16:21:58.365Z,7.70
2018-08-27T16:24:27.544Z,7.47
2018-08-27T16:26:56.856Z,8.70
2018-08-27T16:29:26.128Z,9.43
2018-08-27T16:31:55.680Z,8.30
2018-08-27T16:34:25.083Z,8.60
2018-08-27T16:36:54.402Z,8.33
2018-08-27T16:39:23.669Z,6.93
2018-08-27T16:41:52.940Z,8.87
2018-08-27T16:44:22.181Z,12.20
2018-08-27T16:46:51.368Z,8.03
2018-08-27T16:49:20.566Z,11.33
2018-08-27T16:51:50.249Z,11.40
2018-08-27T16:54:19.662Z,10.87
2018-08-27T16:56:48.964Z,15.13
2018-08-27T16:59:18.380Z,13.67
2018-08-27T17:01:47.688Z,10.03
2018-08-27T17:04:16.872Z,9.87
2018-08-27T17:06:46.193Z,14.23
2018-08-27T17:09:15.406Z,7.00
2018-08-27T17:11:45.352Z,9.40
2018-08-27T17:14:15.052Z,7.87
2018-08-27T17:16:44.568Z,12.30
2018-08-27T17:19:13.824Z,8.60
2018-08-27T17:21:42.931Z,9.73
2018-08-27T17:24:12.658Z,12.33
2018-08-27T17:26:41.947Z,12.70
2018-08-27T17:29:11.396Z,9.00
2018-08-27T17:31:40.589Z,9.27
2018-08-27T17:34:09.809Z,14.13
2018-08-27T17:36:39.102Z,10.33
2018-08-27T17:39:10.618Z,21.50
2018-08-27T17:41:40.317Z,13.73
2018-08-27T17:44:10.427Z,10.53
2018-08-27T17:46:39.559Z,12.63
2018-08-27T17:49:08.732Z,13.47
2018-08-27T17:51:37.798Z,11.60
2018-08-27T17:54:06.899Z,16.77
2018-08-27T17:56:36.173Z,13.50
2018-08-27T17:59:05.315Z,9.90
2018-08-27T18:01:34.420Z,14.77
2018-08-27T18:04:03.641Z,16.10
2018-08-27T18:06:32.786Z,13.03
2018-08-27T18:09:03.163Z,12.67
2018-08-27T18:11:32.567Z,17.43
2018-08-27T18:14:01.681Z,18.50
2018-08-27T18:16:30.998Z,14.23
2018-08-27T18:19:00.537Z,12.70
2018-08-27T18:21:29.662Z,12.93
2018-08-27T18:23:58.761Z,15.13
2018-08-27T18:26:27.854Z,13.73
2018-08-27T18:28:56.841Z,11.77
2018-08-27T18:31:26.359Z,15.53
2018-08-27T18:33:55.711Z,15.20
2018-08-27T18:36:24.818Z,14.23
2018-08-27T18:38:54.146Z,12.80
2018-08-27T18:41:23.497Z,17.70
2018-08-27T18:43:52.617Z,20.00
2018-08-27T18:46:21.723Z,14.60
2018-08-27T18:48:50.891Z,15.30
2018-08-27T18:51:20.237Z,13.10
2018-08-27T18:53:49.709Z,14.30
2018-08-27T18:56:19.585Z,14.77
2018-08-27T18:58:48.988Z,21.53
2018-08-27T19:01:18.457Z,19.67
2018-08-27T19:03:47.865Z,21.13
2018-08-27T19:06:17.218Z,15.33
2018-08-27T19:08:46.601Z,13.90
2018-08-27T19:11:16.029Z,14.60
2018-08-27T19:13:45.438Z,15.57
2018-08-27T19:16:14.977Z,15.60
2018-08-27T19:18:44.395Z,18.50
2018-08-27T19:21:13.826Z,15.20
2018-08-27T19:23:43.197Z,12.60
2018-08-27T19:26:12.708Z,18.80
2018-08-27T19:28:42.319Z,17.03
2018-08-27T19:31:11.788Z,15.57
2018-08-27T19:33:41.113Z,15.23
2018-08-27T19:36:10.771Z,15.63
2018-08-27T19:38:39.994Z,16.30
2018-08-27T19:41:09.415Z,19.87
2018-08-27T19:43:39.114Z,16.23
2018-08-27T19:46:09.408Z,12.00
2018-08-27T19:48:38.957Z,11.63
2018-08-27T19:51:08.609Z,15.07
2018-08-27T19:53:38.324Z,15.20
2018-08-27T19:56:07.846Z,11.47
2018-08-27T19:58:37.313Z,13.57
2018-08-27T20:01:06.846Z,12.93
2018-08-27T20:03:36.567Z,12.10
2018-08-27T20:06:06.058Z,8.70
2018-08-27T20:08:35.312Z,11.07
2018-08-27T20:11:04.700Z,12.63
2018-08-27T20:13:34.081Z,10.60
2018-08-27T20:16:03.661Z,9.33
2018-08-27T20:18:32.967Z,7.50
2018-08-27T20:21:02.437Z,8.80
2018-08-27T20:23:31.890Z,7.73
2018-08-27T20:26:01.323Z,10.10
2018-08-27T20:28:30.477Z,11.03
2018-08-27T20:30:59.908Z,12.60
2018-08-27T20:33:29.196Z,7.40
2018-08-27T20:35:58.432Z,9.17
2018-08-27T20:38:27.854Z,8.30
2018-08-27T20:40:58.071Z,7.80
2018-08-27T20:43:27.470Z,9.53
2018-08-27T20:45:57.270Z,9.23
2018-08-27T20:48:26.384Z,13.57
2018-08-27T20:50:56.050Z,8.33
2018-08-27T20:53:26.333Z,13.23
2018-08-27T20:55:55.471Z,11.77
2018-08-27T20:58:24.739Z,12.90
2018-08-27T21:00:53.753Z,11.17
2018-08-27T21:03:23.104Z,9.10
2018-08-27T21:05:52.132Z,10.77
2018-08-27T21:08:21.533Z,9.90
2018-08-27T21:10:50.702Z,8.87
2018-08-27T21:13:19.796Z,16.63
2018-08-27T21:15:49.116Z,10.87
2018-08-27T21:18:18.500Z,14.87
2018-08-27T21:20:47.876Z,11.20
2018-08-27T21:23:17.808Z,10.07
2018-08-27T21:25:47.320Z,10.30
2018-08-27T21:28:16.536Z,11.63
2018-08-27T21:30:45.760Z,15.70
2018-08-27T21:33:15.243Z,9.53
2018-08-27T21:35:44.206Z,9.93
2018-08-27T21:38:13.517Z,18.80
2018-08-27T21:40:42.996Z,9.67
2018-08-27T21:43:12.458Z,12.67
2018-08-27T21:45:41.798Z,10.80
2018-08-27T21:48:10.775Z,11.80
2018-08-27T21:50:39.932Z,10.87
2018-08-27T21:53:09.335Z,13.33
2018-08-27T21:55:39.172Z,10.00
2018-08-27T21:58:08.404Z,7.23
2018-08-27T22:00:41.645Z,8.63
2018-08-27T22:03:16.755Z,8.40
2018-08-27T22:05:46.269Z,7.20
2018-08-27T22:08:15.590Z,9.57
2018-08-27T22:10:44.947Z,7.50
2018-08-27T22:13:14.504Z,5.90
2018-08-27T22:15:43.723Z,9.23
2018-08-27T22:18:13.064Z,14.60
2018-08-27T22:20:42.374Z,8.20
2018-08-27T22:23:11.695Z,9.37
2018-08-27T22:25:41.096Z,8.37
2018-08-27T22:28:10.401Z,6.90
2018-08-27T22:30:39.689Z,8.67
2018-08-27T22:33:08.816Z,11.27
2018-08-27T22:35:38.057Z,6.10
2018-08-27T22:38:07.301Z,9.30
2018-08-27T22:40:36.628Z,8.73
2018-08-27T22:43:05.865Z,7.33
2018-08-27T22:45:35.056Z,8.67
2018-08-27T22:48:04.404Z,9.63
2018-08-27T22:50:33.621Z,7.00
2018-08-27T22:53:02.808Z,10.10
2018-08-27T22:55:32.041Z,8.20
2018-08-27T22:58:01.291Z,12.80
2018-08-27T23:00:30.564Z,7.67
2018-08-27T23:03:05.046Z,10.27
2018-08-27T23:05:34.226Z,6.50
2018-08-27T23:08:03.403Z,8.77
2018-08-27T23:10:32.431Z,9.30
2018-08-27T23:13:01.699Z,8.10
2018-08-27T23:15:30.863Z,9.33
2018-08-27T23:17:59.896Z,7.50
2018-08-27T23:20:29.055Z,9.70
2018-08-27T23:22:58.126Z,9.93
2018-08-27T23:25:27.231Z,8.53
2018-08-27T23:27:56.252Z,7.20
2018-08-27T23:30:25.446Z,10.10
2018-08-27T23:32:54.476Z,8.00
2018-08-27T23:35:23.529Z,9.23
2018-08-27T23:37:52.699Z,11.00
2018-08-27T23:40:21.886Z,9.43
2018-08-27T23:42:51.017Z,5.60
2018-08-27T23:45:20.085Z,10.73
2018-08-27T23:47:49.451Z,11.20
2018-08-27T23:50:18.628Z,7.90
2018-08-27T23:52:48.014Z,9.90
2018-08-27T23:55:17.175Z,6.50
2018-08-27T23:57:46.345Z,9.93
